sensor_id;sensor_type;location;lat;lon;timestamp;P1;durP1;ratioP1;P2;durP2;ratioP2
36391;SDS011;22639;42.690;23.356;2022-09-09T00:10:07;15.45;;;13.70;;
36391;SDS011;22639;42.690;23.356;2022-09-09T00:12:54;14.40;;;13.00;;
36391;SDS011;22639;42.690;23.356;2022-09-09T00:15:33;13.77;;;12.48;;
36391;SDS011;22639;42.690;23.356;2022-09-09T00:21:13;17.88;;;13.68;;
36391;SDS011;22639;42.690;23.356;2022-09-09T00:23:47;16.52;;;13.60;;
36391;SDS011;22639;42.690;23.356;2022-09-09T00:31:24;16.80;;;13.95;;
36391;SDS011;22639;42.690;23.356;2022-09-09T00:33:53;14.77;;;13.30;;
36391;SDS011;22639;42.690;23.356;2022-09-09T00:36:23;15.95;;;14.23;;
36391;SDS011;22639;42.690;23.356;2022-09-09T00:38:55;15.00;;;13.57;;
36391;SDS011;22639;42.690;23.356;2022-09-09T00:44:25;18.60;;;15.40;;
36391;SDS011;22639;42.690;23.356;2022-09-09T00:52:36;15.73;;;14.15;;
36391;SDS011;22639;42.690;23.356;2022-09-09T00:55:16;15.50;;;14.00;;
36391;SDS011;22639;42.690;23.356;2022-09-09T00:57:51;14.73;;;13.10;;
36391;SDS011;22639;42.690;23.356;2022-09-09T01:00:24;14.43;;;12.93;;
36391;SDS011;22639;42.690;23.356;2022-09-09T01:06:35;12.98;;;11.75;;
36391;SDS011;22639;42.690;23.356;2022-09-09T01:22:26;13.20;;;11.90;;
36391;SDS011;22639;42.690;23.356;2022-09-09T01:27:52;12.73;;;11.48;;
36391;SDS011;22639;42.690;23.356;2022-09-09T01:30:21;13.63;;;12.25;;
36391;SDS011;22639;42.690;23.356;2022-09-09T01:32:53;15.30;;;11.98;;
36391;SDS011;22639;42.690;23.356;2022-09-09T01:37:52;17.05;;;14.43;;
36391;SDS011;22639;42.690;23.356;2022-09-09T01:40:17;12.63;;;11.32;;
36391;SDS011;22639;42.690;23.356;2022-09-09T01:42:43;13.95;;;12.55;;
36391;SDS011;22639;42.690;23.356;2022-09-09T01:45:08;12.65;;;11.48;;
36391;SDS011;22639;42.690;23.356;2022-09-09T01:47:35;14.73;;;13.32;;
36391;SDS011;22639;42.690;23.356;2022-09-09T01:50:00;12.63;;;11.50;;
36391;SDS011;22639;42.690;23.356;2022-09-09T01:52:28;13.15;;;11.98;;
36391;SDS011;22639;42.690;23.356;2022-09-09T01:54:54;13.20;;;11.93;;
36391;SDS011;22639;42.690;23.356;2022-09-09T02:05:25;14.50;;;13.02;;
36391;SDS011;22639;42.690;23.356;2022-09-09T02:08:03;14.50;;;13.07;;
36391;SDS011;22639;42.690;23.356;2022-09-09T02:10:31;13.98;;;12.65;;
36391;SDS011;22639;42.690;23.356;2022-09-09T02:13:07;13.98;;;12.75;;
36391;SDS011;22639;42.690;23.356;2022-09-09T02:15:43;14.85;;;12.85;;
36391;SDS011;22639;42.690;23.356;2022-09-09T02:18:30;14.07;;;12.68;;
36391;SDS011;22639;42.690;23.356;2022-09-09T02:21:05;14.27;;;12.30;;
36391;SDS011;22639;42.690;23.356;2022-09-09T02:23:32;13.73;;;12.38;;
36391;SDS011;22639;42.690;23.356;2022-09-09T02:26:00;14.77;;;13.25;;
36391;SDS011;22639;42.690;23.356;2022-09-09T02:28:28;14.82;;;12.70;;
36391;SDS011;22639;42.690;23.356;2022-09-09T02:30:56;14.32;;;13.02;;
36391;SDS011;22639;42.690;23.356;2022-09-09T02:33:24;14.23;;;12.82;;
36391;SDS011;22639;42.690;23.356;2022-09-09T02:35:52;14.30;;;12.82;;
36391;SDS011;22639;42.690;23.356;2022-09-09T02:38:21;14.00;;;12.57;;
36391;SDS011;22639;42.690;23.356;2022-09-09T02:40:51;13.65;;;12.35;;
36391;SDS011;22639;42.690;23.356;2022-09-09T02:43:17;14.75;;;13.25;;
36391;SDS011;22639;42.690;23.356;2022-09-09T02:46:08;15.73;;;13.95;;
36391;SDS011;22639;42.690;23.356;2022-09-09T02:51:15;15.57;;;14.07;;
36391;SDS011;22639;42.690;23.356;2022-09-09T02:56:29;17.50;;;14.77;;
36391;SDS011;22639;42.690;23.356;2022-09-09T02:58:58;16.85;;;15.32;;
36391;SDS011;22639;42.690;23.356;2022-09-09T03:01:24;16.73;;;14.98;;
36391;SDS011;22639;42.690;23.356;2022-09-09T03:03:50;17.42;;;15.80;;
36391;SDS011;22639;42.690;23.356;2022-09-09T03:06:15;16.02;;;14.50;;
36391;SDS011;22639;42.690;23.356;2022-09-09T03:08:41;18.10;;;16.40;;
36391;SDS011;22639;42.690;23.356;2022-09-09T03:11:07;18.65;;;16.75;;
36391;SDS011;22639;42.690;23.356;2022-09-09T03:13:39;18.90;;;16.85;;
36391;SDS011;22639;42.690;23.356;2022-09-09T03:16:04;19.05;;;17.05;;
36391;SDS011;22639;42.690;23.356;2022-09-09T03:18:30;17.95;;;16.35;;
36391;SDS011;22639;42.690;23.356;2022-09-09T03:20:57;18.70;;;17.00;;
36391;SDS011;22639;42.690;23.356;2022-09-09T03:23:24;18.63;;;16.75;;
36391;SDS011;22639;42.690;23.356;2022-09-09T03:25:50;19.48;;;17.50;;
36391;SDS011;22639;42.690;23.356;2022-09-09T03:28:17;17.63;;;15.95;;
36391;SDS011;22639;42.690;23.356;2022-09-09T03:30:43;17.77;;;15.98;;
36391;SDS011;22639;42.690;23.356;2022-09-09T03:33:09;19.20;;;17.20;;
36391;SDS011;22639;42.690;23.356;2022-09-09T03:35:34;20.00;;;18.00;;
36391;SDS011;22639;42.690;23.356;2022-09-09T03:37:59;19.05;;;17.05;;
36391;SDS011;22639;42.690;23.356;2022-09-09T03:40:27;19.80;;;17.08;;
36391;SDS011;22639;42.690;23.356;2022-09-09T03:42:53;20.52;;;17.42;;
36391;SDS011;22639;42.690;23.356;2022-09-09T03:45:18;19.27;;;17.40;;
36391;SDS011;22639;42.690;23.356;2022-09-09T03:47:44;21.73;;;17.55;;
36391;SDS011;22639;42.690;23.356;2022-09-09T03:50:10;19.90;;;17.63;;
36391;SDS011;22639;42.690;23.356;2022-09-09T03:52:40;19.48;;;17.48;;
36391;SDS011;22639;42.690;23.356;2022-09-09T03:55:07;19.65;;;17.83;;
36391;SDS011;22639;42.690;23.356;2022-09-09T03:57:33;19.45;;;17.75;;
36391;SDS011;22639;42.690;23.356;2022-09-09T04:00:01;22.10;;;17.33;;
36391;SDS011;22639;42.690;23.356;2022-09-09T04:02:29;20.48;;;18.38;;
36391;SDS011;22639;42.690;23.356;2022-09-09T04:04:54;20.15;;;18.08;;
36391;SDS011;22639;42.690;23.356;2022-09-09T04:07:20;20.00;;;18.00;;
36391;SDS011;22639;42.690;23.356;2022-09-09T04:09:46;19.63;;;17.65;;
36391;SDS011;22639;42.690;23.356;2022-09-09T04:12:11;21.00;;;19.08;;
36391;SDS011;22639;42.690;23.356;2022-09-09T04:14:38;20.38;;;17.63;;
36391;SDS011;22639;42.690;23.356;2022-09-09T04:17:03;20.50;;;18.38;;
36391;SDS011;22639;42.690;23.356;2022-09-09T04:19:31;25.48;;;22.98;;
36391;SDS011;22639;42.690;23.356;2022-09-09T04:21:57;22.38;;;20.00;;
36391;SDS011;22639;42.690;23.356;2022-09-09T04:24:22;18.98;;;17.08;;
36391;SDS011;22639;42.690;23.356;2022-09-09T04:26:48;17.80;;;16.20;;
36391;SDS011;22639;42.690;23.356;2022-09-09T04:29:14;17.13;;;15.52;;
36391;SDS011;22639;42.690;23.356;2022-09-09T04:31:39;15.77;;;14.38;;
36391;SDS011;22639;42.690;23.356;2022-09-09T04:34:07;16.55;;;14.95;;
36391;SDS011;22639;42.690;23.356;2022-09-09T04:36:34;15.25;;;13.85;;
36391;SDS011;22639;42.690;23.356;2022-09-09T04:38:59;15.43;;;13.82;;
36391;SDS011;22639;42.690;23.356;2022-09-09T04:41:25;15.25;;;13.75;;
36391;SDS011;22639;42.690;23.356;2022-09-09T04:43:51;15.73;;;14.15;;
36391;SDS011;22639;42.690;23.356;2022-09-09T04:46:18;13.23;;;12.02;;
36391;SDS011;22639;42.690;23.356;2022-09-09T04:48:44;13.35;;;12.00;;
36391;SDS011;22639;42.690;23.356;2022-09-09T04:51:11;15.18;;;13.77;;
36391;SDS011;22639;42.690;23.356;2022-09-09T04:53:38;14.98;;;13.57;;
36391;SDS011;22639;42.690;23.356;2022-09-09T04:56:06;14.93;;;13.40;;
36391;SDS011;22639;42.690;23.356;2022-09-09T04:58:37;16.35;;;13.93;;
36391;SDS011;22639;42.690;23.356;2022-09-09T05:01:07;14.75;;;13.25;;
36391;SDS011;22639;42.690;23.356;2022-09-09T05:03:34;15.38;;;14.00;;
36391;SDS011;22639;42.690;23.356;2022-09-09T05:06:06;15.32;;;13.85;;
36391;SDS011;22639;42.690;23.356;2022-09-09T05:08:36;14.38;;;12.98;;
36391;SDS011;22639;42.690;23.356;2022-09-09T05:11:12;16.17;;;12.30;;
36391;SDS011;22639;42.690;23.356;2022-09-09T05:13:42;13.70;;;12.35;;
36391;SDS011;22639;42.690;23.356;2022-09-09T05:16:07;12.43;;;11.38;;
36391;SDS011;22639;42.690;23.356;2022-09-09T05:18:38;13.75;;;12.38;;
36391;SDS011;22639;42.690;23.356;2022-09-09T05:21:09;14.65;;;12.52;;
36391;SDS011;22639;42.690;23.356;2022-09-09T05:23:35;12.40;;;11.30;;
36391;SDS011;22639;42.690;23.356;2022-09-09T05:26:02;14.10;;;11.80;;
36391;SDS011;22639;42.690;23.356;2022-09-09T05:28:29;13.43;;;11.98;;
36391;SDS011;22639;42.690;23.356;2022-09-09T05:31:05;17.15;;;12.43;;
36391;SDS011;22639;42.690;23.356;2022-09-09T05:33:36;13.65;;;11.70;;
36391;SDS011;22639;42.690;23.356;2022-09-09T05:38:29;13.07;;;11.20;;
36391;SDS011;22639;42.690;23.356;2022-09-09T05:40:55;13.82;;;12.40;;
36391;SDS011;22639;42.690;23.356;2022-09-09T05:43:22;12.23;;;11.00;;
36391;SDS011;22639;42.690;23.356;2022-09-09T05:45:48;13.05;;;10.93;;
36391;SDS011;22639;42.690;23.356;2022-09-09T05:48:27;15.52;;;11.75;;
36391;SDS011;22639;42.690;23.356;2022-09-09T05:50:53;12.57;;;11.27;;
36391;SDS011;22639;42.690;23.356;2022-09-09T05:53:19;11.13;;;10.02;;
36391;SDS011;22639;42.690;23.356;2022-09-09T05:55:45;12.15;;;9.25;;
36391;SDS011;22639;42.690;23.356;2022-09-09T05:58:10;8.77;;;8.02;;
36391;SDS011;22639;42.690;23.356;2022-09-09T06:00:36;9.20;;;8.25;;
36391;SDS011;22639;42.690;23.356;2022-09-09T06:03:02;7.82;;;6.85;;
36391;SDS011;22639;42.690;23.356;2022-09-09T06:05:28;7.72;;;6.97;;
36391;SDS011;22639;42.690;23.356;2022-09-09T06:07:54;7.03;;;6.32;;
36391;SDS011;22639;42.690;23.356;2022-09-09T06:10:20;8.88;;;7.97;;
36391;SDS011;22639;42.690;23.356;2022-09-09T06:12:46;8.40;;;7.70;;
36391;SDS011;22639;42.690;23.356;2022-09-09T06:15:11;8.20;;;7.30;;
36391;SDS011;22639;42.690;23.356;2022-09-09T06:17:37;8.45;;;7.55;;
36391;SDS011;22639;42.690;23.356;2022-09-09T06:20:04;8.45;;;7.78;;
36391;SDS011;22639;42.690;23.356;2022-09-09T06:22:30;7.75;;;6.93;;
36391;SDS011;22639;42.690;23.356;2022-09-09T06:24:55;7.13;;;6.45;;
36391;SDS011;22639;42.690;23.356;2022-09-09T06:27:21;6.78;;;6.28;;
36391;SDS011;22639;42.690;23.356;2022-09-09T06:29:46;7.57;;;6.72;;
36391;SDS011;22639;42.690;23.356;2022-09-09T06:32:13;6.90;;;6.35;;
36391;SDS011;22639;42.690;23.356;2022-09-09T06:34:39;7.97;;;7.18;;
36391;SDS011;22639;42.690;23.356;2022-09-09T06:37:05;8.10;;;7.30;;
36391;SDS011;22639;42.690;23.356;2022-09-09T06:39:31;6.53;;;6.03;;
36391;SDS011;22639;42.690;23.356;2022-09-09T06:41:57;6.00;;;5.50;;
36391;SDS011;22639;42.690;23.356;2022-09-09T06:44:23;6.40;;;5.90;;
36391;SDS011;22639;42.690;23.356;2022-09-09T06:46:51;6.45;;;5.88;;
36391;SDS011;22639;42.690;23.356;2022-09-09T06:49:17;6.50;;;5.90;;
36391;SDS011;22639;42.690;23.356;2022-09-09T06:51:43;7.13;;;5.95;;
36391;SDS011;22639;42.690;23.356;2022-09-09T06:54:09;6.10;;;5.60;;
36391;SDS011;22639;42.690;23.356;2022-09-09T06:56:37;9.73;;;6.38;;
36391;SDS011;22639;42.690;23.356;2022-09-09T06:59:07;6.10;;;5.57;;
36391;SDS011;22639;42.690;23.356;2022-09-09T07:01:43;6.15;;;5.65;;
36391;SDS011;22639;42.690;23.356;2022-09-09T07:04:19;7.38;;;5.97;;
36391;SDS011;22639;42.690;23.356;2022-09-09T07:06:45;6.53;;;5.90;;
36391;SDS011;22639;42.690;23.356;2022-09-09T07:09:12;7.07;;;6.00;;
36391;SDS011;22639;42.690;23.356;2022-09-09T07:11:47;7.93;;;6.15;;
36391;SDS011;22639;42.690;23.356;2022-09-09T07:14:14;7.32;;;5.32;;
36391;SDS011;22639;42.690;23.356;2022-09-09T07:16:40;6.63;;;6.10;;
36391;SDS011;22639;42.690;23.356;2022-09-09T07:19:10;7.63;;;6.78;;
36391;SDS011;22639;42.690;23.356;2022-09-09T07:21:36;8.07;;;6.15;;
36391;SDS011;22639;42.690;23.356;2022-09-09T07:24:02;9.65;;;6.70;;
36391;SDS011;22639;42.690;23.356;2022-09-09T07:26:30;5.95;;;5.45;;
36391;SDS011;22639;42.690;23.356;2022-09-09T07:28:56;5.85;;;5.35;;
36391;SDS011;22639;42.690;23.356;2022-09-09T07:31:25;6.18;;;5.68;;
36391;SDS011;22639;42.690;23.356;2022-09-09T07:34:02;6.00;;;5.57;;
36391;SDS011;22639;42.690;23.356;2022-09-09T07:36:29;6.20;;;5.70;;
36391;SDS011;22639;42.690;23.356;2022-09-09T07:39:02;9.57;;;7.95;;
36391;SDS011;22639;42.690;23.356;2022-09-09T07:41:30;5.85;;;5.43;;
36391;SDS011;22639;42.690;23.356;2022-09-09T07:44:04;8.40;;;5.88;;
36391;SDS011;22639;42.690;23.356;2022-09-09T07:46:37;9.50;;;5.80;;
36391;SDS011;22639;42.690;23.356;2022-09-09T07:49:05;6.25;;;5.32;;
36391;SDS011;22639;42.690;23.356;2022-09-09T07:51:40;5.50;;;5.00;;
36391;SDS011;22639;42.690;23.356;2022-09-09T07:54:09;5.63;;;5.10;;
36391;SDS011;22639;42.690;23.356;2022-09-09T07:56:36;7.00;;;5.68;;
36391;SDS011;22639;42.690;23.356;2022-09-09T07:59:02;5.18;;;4.65;;
36391;SDS011;22639;42.690;23.356;2022-09-09T08:01:33;6.32;;;5.72;;
36391;SDS011;22639;42.690;23.356;2022-09-09T08:04:04;5.53;;;5.13;;
36391;SDS011;22639;42.690;23.356;2022-09-09T08:06:38;6.18;;;5.28;;
36391;SDS011;22639;42.690;23.356;2022-09-09T08:09:06;6.05;;;5.45;;
36391;SDS011;22639;42.690;23.356;2022-09-09T08:11:32;5.40;;;4.90;;
36391;SDS011;22639;42.690;23.356;2022-09-09T08:13:59;7.05;;;5.63;;
36391;SDS011;22639;42.690;23.356;2022-09-09T08:16:26;7.85;;;6.63;;
36391;SDS011;22639;42.690;23.356;2022-09-09T08:18:53;6.28;;;5.78;;
36391;SDS011;22639;42.690;23.356;2022-09-09T08:21:22;8.73;;;5.68;;
36391;SDS011;22639;42.690;23.356;2022-09-09T08:23:50;6.47;;;5.47;;
36391;SDS011;22639;42.690;23.356;2022-09-09T08:26:20;11.30;;;6.63;;
36391;SDS011;22639;42.690;23.356;2022-09-09T08:28:48;7.13;;;5.78;;
36391;SDS011;22639;42.690;23.356;2022-09-09T08:31:43;5.95;;;5.45;;
36391;SDS011;22639;42.690;23.356;2022-09-09T08:34:20;6.10;;;5.55;;
36391;SDS011;22639;42.690;23.356;2022-09-09T08:39:33;8.85;;;6.45;;
36391;SDS011;22639;42.690;23.356;2022-09-09T08:53:01;7.95;;;7.07;;
36391;SDS011;22639;42.690;23.356;2022-09-09T08:58:30;8.45;;;6.82;;
36391;SDS011;22639;42.690;23.356;2022-09-09T09:06:42;6.43;;;5.80;;
36391;SDS011;22639;42.690;23.356;2022-09-09T09:09:36;6.57;;;6.07;;
36391;SDS011;22639;42.690;23.356;2022-09-09T09:12:25;6.95;;;6.03;;
36391;SDS011;22639;42.690;23.356;2022-09-09T09:14:54;8.57;;;7.10;;
36391;SDS011;22639;42.690;23.356;2022-09-09T09:17:24;6.65;;;5.95;;
36391;SDS011;22639;42.690;23.356;2022-09-09T09:19:53;7.07;;;6.47;;
36391;SDS011;22639;42.690;23.356;2022-09-09T09:25:05;6.45;;;5.85;;
36391;SDS011;22639;42.690;23.356;2022-09-09T09:27:40;8.07;;;6.72;;
36391;SDS011;22639;42.690;23.356;2022-09-09T09:30:38;6.78;;;5.90;;
36391;SDS011;22639;42.690;23.356;2022-09-09T09:36:01;6.78;;;6.18;;
36391;SDS011;22639;42.690;23.356;2022-09-09T09:38:28;6.55;;;5.93;;
36391;SDS011;22639;42.690;23.356;2022-09-09T09:40:58;7.50;;;6.90;;
36391;SDS011;22639;42.690;23.356;2022-09-09T09:43:41;8.15;;;6.45;;
36391;SDS011;22639;42.690;23.356;2022-09-09T09:46:21;7.00;;;6.32;;
36391;SDS011;22639;42.690;23.356;2022-09-09T09:49:04;6.47;;;5.97;;
36391;SDS011;22639;42.690;23.356;2022-09-09T09:51:34;7.88;;;6.43;;
36391;SDS011;22639;42.690;23.356;2022-09-09T09:56:38;6.85;;;6.22;;
36391;SDS011;22639;42.690;23.356;2022-09-09T09:59:05;6.68;;;6.05;;
36391;SDS011;22639;42.690;23.356;2022-09-09T10:01:44;8.00;;;6.80;;
36391;SDS011;22639;42.690;23.356;2022-09-09T10:04:20;6.70;;;6.18;;
36391;SDS011;22639;42.690;23.356;2022-09-09T10:06:48;7.85;;;6.28;;
36391;SDS011;22639;42.690;23.356;2022-09-09T10:20:48;8.80;;;7.18;;
36391;SDS011;22639;42.690;23.356;2022-09-09T10:26:51;7.07;;;6.35;;
36391;SDS011;22639;42.690;23.356;2022-09-09T10:29:32;11.07;;;7.65;;
36391;SDS011;22639;42.690;23.356;2022-09-09T10:32:37;8.80;;;7.57;;
36391;SDS011;22639;42.690;23.356;2022-09-09T10:35:43;7.93;;;7.25;;
36391;SDS011;22639;42.690;23.356;2022-09-09T10:41:12;7.68;;;6.97;;
36391;SDS011;22639;42.690;23.356;2022-09-09T10:44:12;11.57;;;8.38;;
36391;SDS011;22639;42.690;23.356;2022-09-09T10:52:30;9.35;;;7.70;;
36391;SDS011;22639;42.690;23.356;2022-09-09T10:55:39;9.32;;;8.35;;
36391;SDS011;22639;42.690;23.356;2022-09-09T10:58:02;10.90;;;8.40;;
36391;SDS011;22639;42.690;23.356;2022-09-09T11:03:05;9.55;;;8.02;;
36391;SDS011;22639;42.690;23.356;2022-09-09T11:05:43;11.45;;;8.30;;
36391;SDS011;22639;42.690;23.356;2022-09-09T11:08:26;9.52;;;8.63;;
36391;SDS011;22639;42.690;23.356;2022-09-09T11:16:53;10.15;;;9.23;;
36391;SDS011;22639;42.690;23.356;2022-09-09T11:19:33;12.73;;;9.05;;
36391;SDS011;22639;42.690;23.356;2022-09-09T11:24:54;12.00;;;9.80;;
36391;SDS011;22639;42.690;23.356;2022-09-09T11:40:39;9.90;;;8.98;;
36391;SDS011;22639;42.690;23.356;2022-09-09T11:43:09;15.80;;;8.50;;
36391;SDS011;22639;42.690;23.356;2022-09-09T11:45:56;10.40;;;7.82;;
36391;SDS011;22639;42.690;23.356;2022-09-09T11:53:30;9.25;;;8.32;;
36391;SDS011;22639;42.690;23.356;2022-09-09T11:56:03;9.60;;;8.75;;
36391;SDS011;22639;42.690;23.356;2022-09-09T11:58:39;11.20;;;9.02;;
36391;SDS011;22639;42.690;23.356;2022-09-09T12:03:59;11.38;;;9.15;;
36391;SDS011;22639;42.690;23.356;2022-09-09T12:09:29;13.27;;;9.43;;
36391;SDS011;22639;42.690;23.356;2022-09-09T12:13:06;9.95;;;8.40;;
36391;SDS011;22639;42.690;23.356;2022-09-09T12:17:26;12.35;;;8.77;;
36391;SDS011;22639;42.690;23.356;2022-09-09T12:25:18;9.90;;;8.45;;
36391;SDS011;22639;42.690;23.356;2022-09-09T12:30:37;11.15;;;10.13;;
36391;SDS011;22639;42.690;23.356;2022-09-09T12:33:11;11.15;;;9.02;;
36391;SDS011;22639;42.690;23.356;2022-09-09T12:35:38;10.65;;;9.57;;
36391;SDS011;22639;42.690;23.356;2022-09-09T12:38:06;9.10;;;8.30;;
36391;SDS011;22639;42.690;23.356;2022-09-09T12:40:53;11.60;;;10.30;;
36391;SDS011;22639;42.690;23.356;2022-09-09T12:43:24;11.07;;;10.05;;
36391;SDS011;22639;42.690;23.356;2022-09-09T12:45:51;11.23;;;9.95;;
36391;SDS011;22639;42.690;23.356;2022-09-09T12:48:24;11.23;;;10.07;;
36391;SDS011;22639;42.690;23.356;2022-09-09T12:50:55;9.77;;;8.98;;
36391;SDS011;22639;42.690;23.356;2022-09-09T12:55:56;13.50;;;10.40;;
36391;SDS011;22639;42.690;23.356;2022-09-09T12:58:23;11.00;;;9.90;;
36391;SDS011;22639;42.690;23.356;2022-09-09T13:00:50;10.55;;;8.88;;
36391;SDS011;22639;42.690;23.356;2022-09-09T13:03:26;13.80;;;10.05;;
36391;SDS011;22639;42.690;23.356;2022-09-09T13:05:52;10.70;;;9.73;;
36391;SDS011;22639;42.690;23.356;2022-09-09T13:08:23;10.52;;;9.40;;
36391;SDS011;22639;42.690;23.356;2022-09-09T13:11:00;10.63;;;9.73;;
36391;SDS011;22639;42.690;23.356;2022-09-09T13:16:00;12.10;;;10.23;;
36391;SDS011;22639;42.690;23.356;2022-09-09T13:18:27;10.63;;;9.52;;
36391;SDS011;22639;42.690;23.356;2022-09-09T13:20:56;11.02;;;9.85;;
36391;SDS011;22639;42.690;23.356;2022-09-09T13:23:29;11.35;;;9.95;;
36391;SDS011;22639;42.690;23.356;2022-09-09T13:26:42;10.93;;;9.93;;
36391;SDS011;22639;42.690;23.356;2022-09-09T13:28:51;12.38;;;10.68;;
36391;SDS011;22639;42.690;23.356;2022-09-09T13:31:27;10.90;;;9.70;;
36391;SDS011;22639;42.690;23.356;2022-09-09T13:33:54;11.88;;;10.77;;
36391;SDS011;22639;42.690;23.356;2022-09-09T13:36:30;11.60;;;10.50;;
36391;SDS011;22639;42.690;23.356;2022-09-09T13:38:58;11.68;;;9.38;;
36391;SDS011;22639;42.690;23.356;2022-09-09T13:41:29;11.00;;;9.85;;
36391;SDS011;22639;42.690;23.356;2022-09-09T13:43:57;13.35;;;12.00;;
36391;SDS011;22639;42.690;23.356;2022-09-09T13:46:37;12.07;;;9.50;;
36391;SDS011;22639;42.690;23.356;2022-09-09T13:51:43;10.52;;;9.52;;
36391;SDS011;22639;42.690;23.356;2022-09-09T13:54:12;13.10;;;9.73;;
36391;SDS011;22639;42.690;23.356;2022-09-09T13:56:39;12.00;;;10.88;;
36391;SDS011;22639;42.690;23.356;2022-09-09T13:59:09;12.15;;;11.15;;
36391;SDS011;22639;42.690;23.356;2022-09-09T14:01:36;14.60;;;11.10;;
36391;SDS011;22639;42.690;23.356;2022-09-09T14:04:03;12.27;;;11.00;;
36391;SDS011;22639;42.690;23.356;2022-09-09T14:06:31;11.00;;;9.93;;
36391;SDS011;22639;42.690;23.356;2022-09-09T14:08:57;12.45;;;10.98;;
36391;SDS011;22639;42.690;23.356;2022-09-09T14:11:23;13.90;;;10.60;;
36391;SDS011;22639;42.690;23.356;2022-09-09T14:13:49;12.73;;;11.50;;
36391;SDS011;22639;42.690;23.356;2022-09-09T14:16:15;11.48;;;9.65;;
36391;SDS011;22639;42.690;23.356;2022-09-09T14:18:42;12.20;;;9.52;;
36391;SDS011;22639;42.690;23.356;2022-09-09T14:21:09;10.13;;;9.23;;
36391;SDS011;22639;42.690;23.356;2022-09-09T14:23:34;14.20;;;9.32;;
36391;SDS011;22639;42.690;23.356;2022-09-09T14:26:00;11.02;;;9.25;;
36391;SDS011;22639;42.690;23.356;2022-09-09T14:28:26;10.48;;;9.48;;
36391;SDS011;22639;42.690;23.356;2022-09-09T14:30:53;9.60;;;8.32;;
36391;SDS011;22639;42.690;23.356;2022-09-09T14:33:19;9.75;;;8.75;;
36391;SDS011;22639;42.690;23.356;2022-09-09T14:35:44;14.63;;;9.63;;
36391;SDS011;22639;42.690;23.356;2022-09-09T14:38:09;11.70;;;9.35;;
36391;SDS011;22639;42.690;23.356;2022-09-09T14:40:36;11.25;;;9.27;;
36391;SDS011;22639;42.690;23.356;2022-09-09T14:43:03;10.02;;;9.02;;
36391;SDS011;22639;42.690;23.356;2022-09-09T14:45:29;10.13;;;8.88;;
36391;SDS011;22639;42.690;23.356;2022-09-09T14:47:55;9.88;;;8.93;;
36391;SDS011;22639;42.690;23.356;2022-09-09T14:50:21;9.98;;;8.98;;
36391;SDS011;22639;42.690;23.356;2022-09-09T14:52:47;9.32;;;8.43;;
36391;SDS011;22639;42.690;23.356;2022-09-09T14:55:13;12.32;;;9.20;;
36391;SDS011;22639;42.690;23.356;2022-09-09T14:57:40;13.32;;;8.65;;
36391;SDS011;22639;42.690;23.356;2022-09-09T15:00:06;14.13;;;8.38;;
36391;SDS011;22639;42.690;23.356;2022-09-09T15:02:33;10.32;;;8.13;;
36391;SDS011;22639;42.690;23.356;2022-09-09T15:04:59;9.98;;;8.68;;
36391;SDS011;22639;42.690;23.356;2022-09-09T15:07:25;12.48;;;8.73;;
36391;SDS011;22639;42.690;23.356;2022-09-09T15:09:50;9.82;;;8.50;;
36391;SDS011;22639;42.690;23.356;2022-09-09T15:12:19;13.27;;;9.57;;
36391;SDS011;22639;42.690;23.356;2022-09-09T15:14:45;12.70;;;8.93;;
36391;SDS011;22639;42.690;23.356;2022-09-09T15:17:11;13.45;;;11.63;;
36391;SDS011;22639;42.690;23.356;2022-09-09T15:19:38;14.73;;;9.88;;
36391;SDS011;22639;42.690;23.356;2022-09-09T15:22:04;17.60;;;11.95;;
36391;SDS011;22639;42.690;23.356;2022-09-09T15:24:33;10.25;;;9.25;;
36391;SDS011;22639;42.690;23.356;2022-09-09T15:26:59;11.02;;;9.93;;
36391;SDS011;22639;42.690;23.356;2022-09-09T15:29:28;9.95;;;8.98;;
36391;SDS011;22639;42.690;23.356;2022-09-09T15:31:54;11.77;;;9.32;;
36391;SDS011;22639;42.690;23.356;2022-09-09T15:34:20;12.65;;;9.57;;
36391;SDS011;22639;42.690;23.356;2022-09-09T15:36:46;9.18;;;8.07;;
36391;SDS011;22639;42.690;23.356;2022-09-09T15:39:12;15.88;;;10.40;;
36391;SDS011;22639;42.690;23.356;2022-09-09T15:41:44;14.00;;;8.55;;
36391;SDS011;22639;42.690;23.356;2022-09-09T15:44:11;10.82;;;8.30;;
36391;SDS011;22639;42.690;23.356;2022-09-09T15:49:08;12.32;;;9.50;;
36391;SDS011;22639;42.690;23.356;2022-09-09T15:51:37;10.90;;;8.55;;
36391;SDS011;22639;42.690;23.356;2022-09-09T15:54:03;15.52;;;8.70;;
36391;SDS011;22639;42.690;23.356;2022-09-09T15:56:30;9.52;;;8.35;;
36391;SDS011;22639;42.690;23.356;2022-09-09T15:58:56;12.90;;;7.78;;
36391;SDS011;22639;42.690;23.356;2022-09-09T16:01:23;10.35;;;9.18;;
36391;SDS011;22639;42.690;23.356;2022-09-09T16:03:49;10.02;;;8.10;;
36391;SDS011;22639;42.690;23.356;2022-09-09T16:06:19;10.95;;;9.13;;
36391;SDS011;22639;42.690;23.356;2022-09-09T16:08:47;15.65;;;8.77;;
36391;SDS011;22639;42.690;23.356;2022-09-09T16:11:21;10.43;;;8.63;;
36391;SDS011;22639;42.690;23.356;2022-09-09T16:13:48;12.00;;;9.10;;
36391;SDS011;22639;42.690;23.356;2022-09-09T16:16:15;12.70;;;9.23;;
36391;SDS011;22639;42.690;23.356;2022-09-09T16:18:45;14.73;;;9.10;;
36391;SDS011;22639;42.690;23.356;2022-09-09T16:21:17;10.13;;;8.65;;
36391;SDS011;22639;42.690;23.356;2022-09-09T16:23:56;12.55;;;8.15;;
36391;SDS011;22639;42.690;23.356;2022-09-09T16:26:44;12.65;;;8.10;;
36391;SDS011;22639;42.690;23.356;2022-09-09T16:29:12;9.05;;;7.43;;
36391;SDS011;22639;42.690;23.356;2022-09-09T16:31:39;14.20;;;8.35;;
36391;SDS011;22639;42.690;23.356;2022-09-09T16:34:05;12.77;;;8.43;;
36391;SDS011;22639;42.690;23.356;2022-09-09T16:36:32;13.75;;;7.97;;
36391;SDS011;22639;42.690;23.356;2022-09-09T16:39:11;9.57;;;8.52;;
36391;SDS011;22639;42.690;23.356;2022-09-09T16:41:39;14.45;;;8.27;;
36391;SDS011;22639;42.690;23.356;2022-09-09T16:44:06;14.40;;;10.93;;
36391;SDS011;22639;42.690;23.356;2022-09-09T16:46:34;13.63;;;9.77;;
36391;SDS011;22639;42.690;23.356;2022-09-09T16:49:02;15.15;;;9.63;;
36391;SDS011;22639;42.690;23.356;2022-09-09T16:51:34;12.20;;;10.05;;
36391;SDS011;22639;42.690;23.356;2022-09-09T16:54:02;18.58;;;12.93;;
36391;SDS011;22639;42.690;23.356;2022-09-09T16:56:31;18.73;;;12.98;;
36391;SDS011;22639;42.690;23.356;2022-09-09T16:59:00;12.30;;;10.68;;
36391;SDS011;22639;42.690;23.356;2022-09-09T17:01:27;13.02;;;9.63;;
36391;SDS011;22639;42.690;23.356;2022-09-09T17:03:58;14.98;;;11.05;;
36391;SDS011;22639;42.690;23.356;2022-09-09T17:06:29;16.00;;;10.10;;
36391;SDS011;22639;42.690;23.356;2022-09-09T17:11:25;15.00;;;12.50;;
36391;SDS011;22639;42.690;23.356;2022-09-09T17:13:51;21.30;;;13.68;;
36391;SDS011;22639;42.690;23.356;2022-09-09T17:16:18;15.20;;;13.38;;
36391;SDS011;22639;42.690;23.356;2022-09-09T17:18:48;17.13;;;12.73;;
36391;SDS011;22639;42.690;23.356;2022-09-09T17:21:21;17.45;;;12.27;;
36391;SDS011;22639;42.690;23.356;2022-09-09T17:23:48;21.45;;;13.50;;
36391;SDS011;22639;42.690;23.356;2022-09-09T17:26:16;18.73;;;11.40;;
36391;SDS011;22639;42.690;23.356;2022-09-09T17:28:43;18.35;;;13.93;;
36391;SDS011;22639;42.690;23.356;2022-09-09T17:31:11;14.57;;;12.63;;
36391;SDS011;22639;42.690;23.356;2022-09-09T17:33:39;14.25;;;12.20;;